Riderwood, Alabama
Current Conditions -  °F | °C
As of 4:15 PM on Sunday 25 Jan 2015 (Local Time) from KDYA Reporting Station
Scattered Clouds Scattered Clouds  
Wind Chill: 64°   Ceiling: Unl
Heat Index: 64°   Visibility: 10mi
Dew Point: 35°   Wind: 10mph
Humidity: 35%   Direction: 210°SSW
Pressure: 29.77"   Gusts: 21mph
Location:  32.0668°N, 88.2133°W
Report Text: KDYA 252215Z AUTO 21009G18KT 10SM SCT085 18/02 A2977 RMK AO2 T01750018
Loading
Personal Weather Stations






























Interactive Weather Map New forecast layout! Learn more

10-Day Weather Forecast

Advertisements
Track Severe Weather on mobile